Forseti — V2PV4 — position and weather

sailwx.info

Track history (hours):
 
Tides and Currents Weather Stations Pressure Air Temp Water Temp Dewpoint Dewpoint Depression Visibility Wind Speed Wind Dir Waves Ship Positions

Forseti

Last reported at 2017-Mar-24 14:22 UTC. Time now 2017-Mar-24 16:11 UTC.
Position N 55°18' E 019°01'.

Length 85 m; draft 4.5 m.

Type: Cargo ship. MMSI: 304010297.

Date/timePositionNaut miles runAvg speedWind from/ knotsBaromVisibWave heightAir tempDewpointWater temp
2017-Mar-24 14:22N 55°18' E 019°01'911.6
2017-Mar-24 13:33N 55°09' E 019°00'1211.5
2017-Mar-24 12:33N 54°57' E 019°00'1111.6
2017-Mar-24 11:33N 54°46' E 019°00'1111.4
2017-Mar-24 10:33N 54°35' E 018°53'1111.3
2017-Mar-24 09:33N 54°27' E 018°40'5 4.5
2017-Mar-24 08:32N 54°22' E 018°40'0 0.0
2017-Mar-24 07:32N 54°22' E 018°40'0 0.0
2017-Mar-24 06:32N 54°22' E 018°40'0 0.0
2017-Mar-24 05:32N 54°22' E 018°40'0 0.0
2017-Mar-24 04:32N 54°22' E 018°40'0 0.0
2017-Mar-24 03:32N 54°22' E 018°40'0 0.0
2017-Mar-24 02:32N 54°22' E 018°40'0 0.0
2017-Mar-24 01:31N 54°22' E 018°40'0 0.0
2017-Mar-24 00:31N 54°22' E 018°40'0 0.0
2017-Mar-23 23:31N 54°22' E 018°40'0 0.0
2017-Mar-23 22:31N 54°22' E 018°40'0 0.0
2017-Mar-23 21:31N 54°22' E 018°40'0 0.0
2017-Mar-23 20:31N 54°22' E 018°40'0 0.0
2017-Mar-23 19:31N 54°22' E 018°40'0 0.0
2017-Mar-23 18:31N 54°22' E 018°40'0 0.0
2017-Mar-23 17:31N 54°22' E 018°40'0 0.0
2017-Mar-23 16:31N 54°22' E 018°40'0 0.0
2017-Mar-23 15:31N 54°22' E 018°40'0 0.0
2017-Mar-23 14:31N 54°22' E 018°40'0 0.0
2017-Mar-23 13:31N 54°22' E 018°40'0 0.0
2017-Mar-23 12:31N 54°22' E 018°40'0 0.0
2017-Mar-23 11:31N 54°22' E 018°40'0 0.0
2017-Mar-23 10:31N 54°22' E 018°40'0 0.0
2017-Mar-23 09:31N 54°22' E 018°40'0 0.0
2017-Mar-23 08:31N 54°22' E 018°40'0 0.0
2017-Mar-23 07:31N 54°22' E 018°40'0 0.0
2017-Mar-23 06:31N 54°22' E 018°40'0 0.0
2017-Mar-23 05:34N 54°22' E 018°40'5 4.7
2017-Mar-23 04:33N 54°27' E 018°39'0 0.0
2017-Mar-23 03:33N 54°27' E 018°39'0 0.0
2017-Mar-23 02:33N 54°27' E 018°39'0 0.0
2017-Mar-23 01:33N 54°27' E 018°39'0 0.0
2017-Mar-23 00:33N 54°27' E 018°39'0 0.0
2017-Mar-22 23:33N 54°27' E 018°39'0 0.0
2017-Mar-22 22:33N 54°27' E 018°39'0 0.0
2017-Mar-22 21:33N 54°27' E 018°39'0 0.0
2017-Mar-22 20:33N 54°27' E 018°39'0 0.0
2017-Mar-22 19:33N 54°27' E 018°39'0 0.0
2017-Mar-22 18:33N 54°27' E 018°39'0 0.1
2017-Mar-22 17:33N 54°27' E 018°39'9 8.9
2017-Mar-22 16:33N 54°33' E 018°49'1111.3
2017-Mar-22 15:34N 54°43' E 018°58'1010.1
2017-Mar-22 14:33N 54°51' E 018°47'1111.3
2017-Mar-22 13:34N 54°57' E 018°31'1211.5
2017-Mar-22 12:33N 54°56' E 018°11'14211.4
2017-Mar-22 00:04N 54°39' E 014°06'4111.6
2017-Mar-21 20:34N 54°41' E 012°56'1211.6
2017-Mar-21 19:33N 54°37' E 012°36'1211.5
2017-Mar-21 18:31N 54°31' E 012°18'1111.0
2017-Mar-21 17:30N 54°23' E 012°06'3511.4
2017-Mar-21 14:27N 54°07' E 011°13'  
2017-Mar-17 12:32N 54°12' E 011°23'11 9.5
2017-Mar-17 11:23N 54°18' E 011°38'8 9.8
2017-Mar-17 10:32N 54°23' E 011°51'11 9.2
2017-Mar-17 09:18N 54°27' E 012°09'7 9.8
2017-Mar-17 08:33N 54°33' E 012°13'10 9.7
2017-Mar-17 07:33N 54°41' E 012°24'5210.1
2017-Mar-17 02:25N 55°01' E 013°46'910.2
2017-Mar-17 01:32N 55°05' E 014°01'1010.2
2017-Mar-17 00:34N 55°12' E 014°13'1010.2
2017-Mar-16 23:34N 55°19' E 014°25'1010.1
2017-Mar-16 22:33N 55°27' E 014°37'1010.2
2017-Mar-16 21:33N 55°32' E 014°53'1010.1
2017-Mar-16 20:33N 55°37' E 015°08'1010.5
2017-Mar-16 19:34N 55°43' E 015°24'1110.6
2017-Mar-16 18:33N 55°48' E 015°40'1110.8
2017-Mar-16 17:33N 55°54' E 015°57'1110.8
2017-Mar-16 16:33N 55°59' E 016°13'1110.9
2017-Mar-16 15:33N 56°04' E 016°30'1110.9
2017-Mar-16 14:33N 56°10' E 016°46'1410.6
2017-Mar-16 13:13N 56°19' E 017°07'365 9.4
2017-Mar-14 22:33N 60°06' E 026°10'9 9.3
2017-Mar-14 21:33N 60°12' E 026°23'8 8.4
2017-Mar-14 20:34N 60°19' E 026°34'7 7.4
2017-Mar-14 19:34N 60°23' E 026°46'6 6.4
2017-Mar-14 18:34N 60°26' E 026°58'2 2.2
2017-Mar-14 17:31N 60°28' E 026°57'0 0.0
2017-Mar-14 16:31N 60°28' E 026°57'0 0.0
2017-Mar-14 15:31N 60°28' E 026°57'0 0.0
2017-Mar-14 14:31N 60°28' E 026°57'  
Track history (hours):
 
Tides and Currents Weather Stations Pressure Air Temp Water Temp Dewpoint Dewpoint Depression Visibility Wind Speed Wind Dir Waves Ship Positions

Forseti

Last reported at 2017-Mar-24 14:22 UTC. Time now 2017-Mar-24 16:11 UTC.
Position N 55°18' E 019°01'.

Length 85 m; draft 4.5 m.

Type: Cargo ship. MMSI: 304010297.

Date/timePositionNaut miles runAvg speedWind from/ knotsBaromVisibWave heightAir tempDewpointWater temp
2017-Mar-24 14:22N 55°18' E 019°01'911.6
2017-Mar-24 13:33N 55°09' E 019°00'1211.5
2017-Mar-24 12:33N 54°57' E 019°00'1111.6
2017-Mar-24 11:33N 54°46' E 019°00'1111.4
2017-Mar-24 10:33N 54°35' E 018°53'1111.3
2017-Mar-24 09:33N 54°27' E 018°40'5 4.5
2017-Mar-24 08:32N 54°22' E 018°40'0 0.0
2017-Mar-24 07:32N 54°22' E 018°40'0 0.0
2017-Mar-24 06:32N 54°22' E 018°40'0 0.0
2017-Mar-24 05:32N 54°22' E 018°40'0 0.0
2017-Mar-24 04:32N 54°22' E 018°40'0 0.0
2017-Mar-24 03:32N 54°22' E 018°40'0 0.0
2017-Mar-24 02:32N 54°22' E 018°40'0 0.0
2017-Mar-24 01:31N 54°22' E 018°40'0 0.0
2017-Mar-24 00:31N 54°22' E 018°40'0 0.0
2017-Mar-23 23:31N 54°22' E 018°40'0 0.0
2017-Mar-23 22:31N 54°22' E 018°40'0 0.0
2017-Mar-23 21:31N 54°22' E 018°40'0 0.0
2017-Mar-23 20:31N 54°22' E 018°40'0 0.0
2017-Mar-23 19:31N 54°22' E 018°40'0 0.0
2017-Mar-23 18:31N 54°22' E 018°40'0 0.0
2017-Mar-23 17:31N 54°22' E 018°40'0 0.0
2017-Mar-23 16:31N 54°22' E 018°40'0 0.0
2017-Mar-23 15:31N 54°22' E 018°40'0 0.0
2017-Mar-23 14:31N 54°22' E 018°40'0 0.0
2017-Mar-23 13:31N 54°22' E 018°40'0 0.0
2017-Mar-23 12:31N 54°22' E 018°40'0 0.0
2017-Mar-23 11:31N 54°22' E 018°40'0 0.0
2017-Mar-23 10:31N 54°22' E 018°40'0 0.0
2017-Mar-23 09:31N 54°22' E 018°40'0 0.0
2017-Mar-23 08:31N 54°22' E 018°40'0 0.0
2017-Mar-23 07:31N 54°22' E 018°40'0 0.0
2017-Mar-23 06:31N 54°22' E 018°40'0 0.0
2017-Mar-23 05:34N 54°22' E 018°40'5 4.7
2017-Mar-23 04:33N 54°27' E 018°39'0 0.0
2017-Mar-23 03:33N 54°27' E 018°39'0 0.0
2017-Mar-23 02:33N 54°27' E 018°39'0 0.0
2017-Mar-23 01:33N 54°27' E 018°39'0 0.0
2017-Mar-23 00:33N 54°27' E 018°39'0 0.0
2017-Mar-22 23:33N 54°27' E 018°39'0 0.0
2017-Mar-22 22:33N 54°27' E 018°39'0 0.0
2017-Mar-22 21:33N 54°27' E 018°39'0 0.0
2017-Mar-22 20:33N 54°27' E 018°39'0 0.0
2017-Mar-22 19:33N 54°27' E 018°39'0 0.0
2017-Mar-22 18:33N 54°27' E 018°39'0 0.1
2017-Mar-22 17:33N 54°27' E 018°39'9 8.9
2017-Mar-22 16:33N 54°33' E 018°49'1111.3
2017-Mar-22 15:34N 54°43' E 018°58'1010.1
2017-Mar-22 14:33N 54°51' E 018°47'1111.3
2017-Mar-22 13:34N 54°57' E 018°31'1211.5
2017-Mar-22 12:33N 54°56' E 018°11'14211.4
2017-Mar-22 00:04N 54°39' E 014°06'4111.6
2017-Mar-21 20:34N 54°41' E 012°56'1211.6
2017-Mar-21 19:33N 54°37' E 012°36'1211.5
2017-Mar-21 18:31N 54°31' E 012°18'1111.0
2017-Mar-21 17:30N 54°23' E 012°06'3511.4
2017-Mar-21 14:27N 54°07' E 011°13'  
2017-Mar-17 12:32N 54°12' E 011°23'11 9.5
2017-Mar-17 11:23N 54°18' E 011°38'8 9.8
2017-Mar-17 10:32N 54°23' E 011°51'11 9.2
2017-Mar-17 09:18N 54°27' E 012°09'7 9.8
2017-Mar-17 08:33N 54°33' E 012°13'10 9.7
2017-Mar-17 07:33N 54°41' E 012°24'5210.1
2017-Mar-17 02:25N 55°01' E 013°46'910.2
2017-Mar-17 01:32N 55°05' E 014°01'1010.2
2017-Mar-17 00:34N 55°12' E 014°13'1010.2
2017-Mar-16 23:34N 55°19' E 014°25'1010.1
2017-Mar-16 22:33N 55°27' E 014°37'1010.2
2017-Mar-16 21:33N 55°32' E 014°53'1010.1
2017-Mar-16 20:33N 55°37' E 015°08'1010.5
2017-Mar-16 19:34N 55°43' E 015°24'1110.6
2017-Mar-16 18:33N 55°48' E 015°40'1110.8
2017-Mar-16 17:33N 55°54' E 015°57'1110.8
2017-Mar-16 16:33N 55°59' E 016°13'1110.9
2017-Mar-16 15:33N 56°04' E 016°30'1110.9
2017-Mar-16 14:33N 56°10' E 016°46'1410.6
2017-Mar-16 13:13N 56°19' E 017°07'365 9.4
2017-Mar-14 22:33N 60°06' E 026°10'9 9.3
2017-Mar-14 21:33N 60°12' E 026°23'8 8.4
2017-Mar-14 20:34N 60°19' E 026°34'7 7.4
2017-Mar-14 19:34N 60°23' E 026°46'6 6.4
2017-Mar-14 18:34N 60°26' E 026°58'2 2.2
2017-Mar-14 17:31N 60°28' E 026°57'0 0.0
2017-Mar-14 16:31N 60°28' E 026°57'0 0.0
2017-Mar-14 15:31N 60°28' E 026°57'0 0.0
2017-Mar-14 14:31N 60°28' E 026°57'  

Dump ship's entire track history